sensor_id;sensor_type;location;lat;lon;timestamp;temperature;humidity
66608;DHT22;53462;39.616;8.824;2023-04-24T00:00:28;15.80;99.90
66608;DHT22;53462;39.616;8.824;2023-04-24T00:02:54;15.80;99.90
66608;DHT22;53462;39.616;8.824;2023-04-24T00:05:23;15.80;99.90
66608;DHT22;53462;39.616;8.824;2023-04-24T00:07:49;15.80;99.90
66608;DHT22;53462;39.616;8.824;2023-04-24T00:10:18;15.80;99.90
66608;DHT22;53462;39.616;8.824;2023-04-24T00:12:44;15.80;99.90
66608;DHT22;53462;39.616;8.824;2023-04-24T00:15:11;15.80;99.90
66608;DHT22;53462;39.616;8.824;2023-04-24T00:17:37;15.70;99.90
66608;DHT22;53462;39.616;8.824;2023-04-24T00:20:03;15.70;99.90
66608;DHT22;53462;39.616;8.824;2023-04-24T00:22:31;15.70;99.90
66608;DHT22;53462;39.616;8.824;2023-04-24T00:24:57;15.70;99.90
66608;DHT22;53462;39.616;8.824;2023-04-24T00:27:23;15.70;99.90
66608;DHT22;53462;39.616;8.824;2023-04-24T00:29:49;15.70;99.90
66608;DHT22;53462;39.616;8.824;2023-04-24T00:32:15;15.60;99.90
66608;DHT22;53462;39.616;8.824;2023-04-24T00:34:41;15.60;99.90
66608;DHT22;53462;39.616;8.824;2023-04-24T00:37:07;15.60;99.90
66608;DHT22;53462;39.616;8.824;2023-04-24T00:39:33;15.60;99.90
66608;DHT22;53462;39.616;8.824;2023-04-24T00:41:59;15.60;99.90
66608;DHT22;53462;39.616;8.824;2023-04-24T00:44:27;15.70;99.90
66608;DHT22;53462;39.616;8.824;2023-04-24T00:46:54;15.60;99.90
66608;DHT22;53462;39.616;8.824;2023-04-24T00:49:22;15.60;99.90
66608;DHT22;53462;39.616;8.824;2023-04-24T00:51:48;15.60;99.90
66608;DHT22;53462;39.616;8.824;2023-04-24T00:54:15;15.60;99.90
66608;DHT22;53462;39.616;8.824;2023-04-24T00:56:42;15.60;99.90
66608;DHT22;53462;39.616;8.824;2023-04-24T00:59:10;15.60;99.90
66608;DHT22;53462;39.616;8.824;2023-04-24T01:01:36;15.60;99.90
66608;DHT22;53462;39.616;8.824;2023-04-24T01:04:02;15.60;99.90
66608;DHT22;53462;39.616;8.824;2023-04-24T01:06:29;15.60;99.90
66608;DHT22;53462;39.616;8.824;2023-04-24T01:08:58;15.70;99.90
66608;DHT22;53462;39.616;8.824;2023-04-24T01:11:26;15.70;99.90
66608;DHT22;53462;39.616;8.824;2023-04-24T01:13:52;15.60;99.90
66608;DHT22;53462;39.616;8.824;2023-04-24T01:16:18;15.60;99.90
66608;DHT22;53462;39.616;8.824;2023-04-24T01:18:46;15.50;99.90
66608;DHT22;53462;39.616;8.824;2023-04-24T01:21:14;15.40;99.90
66608;DHT22;53462;39.616;8.824;2023-04-24T01:23:43;15.30;99.90
66608;DHT22;53462;39.616;8.824;2023-04-24T01:26:09;15.30;99.90
66608;DHT22;53462;39.616;8.824;2023-04-24T01:28:35;15.30;99.90
66608;DHT22;53462;39.616;8.824;2023-04-24T01:31:07;15.30;99.90
66608;DHT22;53462;39.616;8.824;2023-04-24T01:33:34;15.30;99.90
66608;DHT22;53462;39.616;8.824;2023-04-24T01:36:00;15.30;99.90
66608;DHT22;53462;39.616;8.824;2023-04-24T01:38:26;15.30;99.90
66608;DHT22;53462;39.616;8.824;2023-04-24T01:40:52;15.30;99.90
66608;DHT22;53462;39.616;8.824;2023-04-24T01:43:19;15.40;99.90
66608;DHT22;53462;39.616;8.824;2023-04-24T01:45:45;15.50;99.90
66608;DHT22;53462;39.616;8.824;2023-04-24T01:48:13;15.50;99.90
66608;DHT22;53462;39.616;8.824;2023-04-24T01:50:39;15.40;99.90
66608;DHT22;53462;39.616;8.824;2023-04-24T01:53:05;15.40;99.90
66608;DHT22;53462;39.616;8.824;2023-04-24T01:55:31;15.40;99.90
66608;DHT22;53462;39.616;8.824;2023-04-24T01:57:57;15.40;99.90
66608;DHT22;53462;39.616;8.824;2023-04-24T02:00:25;15.40;99.90
66608;DHT22;53462;39.616;8.824;2023-04-24T02:02:52;15.50;99.90
66608;DHT22;53462;39.616;8.824;2023-04-24T02:05:18;15.50;99.90
66608;DHT22;53462;39.616;8.824;2023-04-24T02:07:44;15.60;99.90
66608;DHT22;53462;39.616;8.824;2023-04-24T02:10:11;15.60;99.90
66608;DHT22;53462;39.616;8.824;2023-04-24T02:12:41;15.50;99.90
66608;DHT22;53462;39.616;8.824;2023-04-24T02:15:07;15.50;99.90
66608;DHT22;53462;39.616;8.824;2023-04-24T02:17:36;15.50;99.90
66608;DHT22;53462;39.616;8.824;2023-04-24T02:20:04;15.50;99.90
66608;DHT22;53462;39.616;8.824;2023-04-24T02:22:31;15.60;99.90
66608;DHT22;53462;39.616;8.824;2023-04-24T02:25:00;15.50;99.90
66608;DHT22;53462;39.616;8.824;2023-04-24T02:27:26;15.60;99.90
66608;DHT22;53462;39.616;8.824;2023-04-24T02:29:52;15.60;99.90
66608;DHT22;53462;39.616;8.824;2023-04-24T02:32:18;15.60;99.90
66608;DHT22;53462;39.616;8.824;2023-04-24T02:34:44;15.60;99.90
66608;DHT22;53462;39.616;8.824;2023-04-24T02:37:11;15.50;99.90
66608;DHT22;53462;39.616;8.824;2023-04-24T02:39:37;15.50;99.90
66608;DHT22;53462;39.616;8.824;2023-04-24T02:42:03;15.40;99.90
66608;DHT22;53462;39.616;8.824;2023-04-24T02:44:30;15.40;99.90
66608;DHT22;53462;39.616;8.824;2023-04-24T02:46:56;15.40;99.90
66608;DHT22;53462;39.616;8.824;2023-04-24T02:49:22;15.40;99.90
66608;DHT22;53462;39.616;8.824;2023-04-24T02:51:48;15.40;99.90
66608;DHT22;53462;39.616;8.824;2023-04-24T02:54:14;15.40;99.90
66608;DHT22;53462;39.616;8.824;2023-04-24T02:56:40;15.30;99.90
66608;DHT22;53462;39.616;8.824;2023-04-24T02:59:08;15.30;99.90
66608;DHT22;53462;39.616;8.824;2023-04-24T03:01:34;15.30;99.90
66608;DHT22;53462;39.616;8.824;2023-04-24T03:04:00;15.30;99.90
66608;DHT22;53462;39.616;8.824;2023-04-24T03:06:26;15.30;99.90
66608;DHT22;53462;39.616;8.824;2023-04-24T03:08:52;15.40;99.90
66608;DHT22;53462;39.616;8.824;2023-04-24T03:11:19;15.30;99.90
66608;DHT22;53462;39.616;8.824;2023-04-24T03:13:45;15.40;99.90
66608;DHT22;53462;39.616;8.824;2023-04-24T03:16:11;15.40;99.90
66608;DHT22;53462;39.616;8.824;2023-04-24T03:18:37;15.40;99.90
66608;DHT22;53462;39.616;8.824;2023-04-24T03:21:04;15.40;99.90
66608;DHT22;53462;39.616;8.824;2023-04-24T03:23:31;15.40;99.90
66608;DHT22;53462;39.616;8.824;2023-04-24T03:25:57;15.40;99.90
66608;DHT22;53462;39.616;8.824;2023-04-24T03:28:22;15.40;99.90
66608;DHT22;53462;39.616;8.824;2023-04-24T03:30:57;15.40;99.90
66608;DHT22;53462;39.616;8.824;2023-04-24T03:33:24;15.50;99.90
66608;DHT22;53462;39.616;8.824;2023-04-24T03:35:58;15.50;99.90
66608;DHT22;53462;39.616;8.824;2023-04-24T03:38:25;15.50;99.90
66608;DHT22;53462;39.616;8.824;2023-04-24T03:40:51;15.50;99.90
66608;DHT22;53462;39.616;8.824;2023-04-24T03:43:37;15.50;99.90
66608;DHT22;53462;39.616;8.824;2023-04-24T03:46:04;15.40;99.90
66608;DHT22;53462;39.616;8.824;2023-04-24T03:48:33;15.40;99.90
66608;DHT22;53462;39.616;8.824;2023-04-24T03:51:00;15.30;99.90
66608;DHT22;53462;39.616;8.824;2023-04-24T03:53:28;15.20;99.90
66608;DHT22;53462;39.616;8.824;2023-04-24T03:55:54;15.10;99.90
66608;DHT22;53462;39.616;8.824;2023-04-24T03:58:21;15.00;99.90
66608;DHT22;53462;39.616;8.824;2023-04-24T04:00:47;14.90;99.90
66608;DHT22;53462;39.616;8.824;2023-04-24T04:03:32;14.90;99.90
66608;DHT22;53462;39.616;8.824;2023-04-24T04:05:58;14.80;99.90
66608;DHT22;53462;39.616;8.824;2023-04-24T04:08:24;14.80;99.90
66608;DHT22;53462;39.616;8.824;2023-04-24T04:10:50;14.70;99.90
66608;DHT22;53462;39.616;8.824;2023-04-24T04:13:16;14.60;99.90
66608;DHT22;53462;39.616;8.824;2023-04-24T04:15:42;14.70;99.90
66608;DHT22;53462;39.616;8.824;2023-04-24T04:18:08;14.70;99.90
66608;DHT22;53462;39.616;8.824;2023-04-24T04:20:34;14.80;99.90
66608;DHT22;53462;39.616;8.824;2023-04-24T04:23:00;14.80;99.90
66608;DHT22;53462;39.616;8.824;2023-04-24T04:25:38;14.90;99.90
66608;DHT22;53462;39.616;8.824;2023-04-24T04:28:03;15.00;99.90
66608;DHT22;53462;39.616;8.824;2023-04-24T04:30:30;14.90;99.90
66608;DHT22;53462;39.616;8.824;2023-04-24T04:33:02;14.90;99.90
66608;DHT22;53462;39.616;8.824;2023-04-24T04:35:28;14.80;99.90
66608;DHT22;53462;39.616;8.824;2023-04-24T04:37:55;14.90;99.90
66608;DHT22;53462;39.616;8.824;2023-04-24T04:40:47;15.00;99.90
66608;DHT22;53462;39.616;8.824;2023-04-24T04:43:14;15.00;99.90
66608;DHT22;53462;39.616;8.824;2023-04-24T04:45:49;15.10;99.90
66608;DHT22;53462;39.616;8.824;2023-04-24T04:48:32;15.20;99.90
66608;DHT22;53462;39.616;8.824;2023-04-24T04:51:01;15.20;99.90
66608;DHT22;53462;39.616;8.824;2023-04-24T04:53:28;15.20;99.90
66608;DHT22;53462;39.616;8.824;2023-04-24T04:55:53;15.20;99.90
66608;DHT22;53462;39.616;8.824;2023-04-24T04:58:23;15.20;99.90
66608;DHT22;53462;39.616;8.824;2023-04-24T05:00:54;15.30;99.90
66608;DHT22;53462;39.616;8.824;2023-04-24T05:03:30;15.30;99.90
66608;DHT22;53462;39.616;8.824;2023-04-24T05:06:04;15.30;99.90
66608;DHT22;53462;39.616;8.824;2023-04-24T05:08:33;15.30;99.90
66608;DHT22;53462;39.616;8.824;2023-04-24T05:10:59;15.10;99.90
66608;DHT22;53462;39.616;8.824;2023-04-24T05:13:27;15.00;99.90
66608;DHT22;53462;39.616;8.824;2023-04-24T05:15:54;15.00;99.90
66608;DHT22;53462;39.616;8.824;2023-04-24T05:18:20;15.00;99.90
66608;DHT22;53462;39.616;8.824;2023-04-24T05:20:46;15.00;99.90
66608;DHT22;53462;39.616;8.824;2023-04-24T05:23:12;15.10;99.90
66608;DHT22;53462;39.616;8.824;2023-04-24T05:25:40;15.10;99.90
66608;DHT22;53462;39.616;8.824;2023-04-24T05:28:10;15.20;99.90
66608;DHT22;53462;39.616;8.824;2023-04-24T05:30:37;15.20;99.90
66608;DHT22;53462;39.616;8.824;2023-04-24T05:33:03;15.30;99.90
66608;DHT22;53462;39.616;8.824;2023-04-24T05:35:32;15.40;99.90
66608;DHT22;53462;39.616;8.824;2023-04-24T05:37:58;15.50;99.90
66608;DHT22;53462;39.616;8.824;2023-04-24T05:40:23;15.60;99.90
66608;DHT22;53462;39.616;8.824;2023-04-24T05:42:49;15.70;99.90
66608;DHT22;53462;39.616;8.824;2023-04-24T05:45:15;15.90;99.90
66608;DHT22;53462;39.616;8.824;2023-04-24T05:47:43;16.20;99.90
66608;DHT22;53462;39.616;8.824;2023-04-24T05:50:11;16.50;99.90
66608;DHT22;53462;39.616;8.824;2023-04-24T05:52:37;16.60;99.90
66608;DHT22;53462;39.616;8.824;2023-04-24T05:55:09;16.60;99.90
66608;DHT22;53462;39.616;8.824;2023-04-24T05:57:38;16.60;99.90
66608;DHT22;53462;39.616;8.824;2023-04-24T06:00:04;16.70;99.90
66608;DHT22;53462;39.616;8.824;2023-04-24T06:02:39;17.00;99.90
66608;DHT22;53462;39.616;8.824;2023-04-24T06:05:08;17.10;99.90
66608;DHT22;53462;39.616;8.824;2023-04-24T06:07:34;17.20;99.90
66608;DHT22;53462;39.616;8.824;2023-04-24T06:10:03;17.20;99.90
66608;DHT22;53462;39.616;8.824;2023-04-24T06:12:36;17.10;99.90
66608;DHT22;53462;39.616;8.824;2023-04-24T06:15:08;17.10;99.90
66608;DHT22;53462;39.616;8.824;2023-04-24T06:17:49;17.90;99.90
66608;DHT22;53462;39.616;8.824;2023-04-24T06:20:17;18.80;99.90
66608;DHT22;53462;39.616;8.824;2023-04-24T06:22:42;19.70;96.60
66608;DHT22;53462;39.616;8.824;2023-04-24T06:25:10;20.20;92.10
66608;DHT22;53462;39.616;8.824;2023-04-24T06:27:36;20.40;89.90
66608;DHT22;53462;39.616;8.824;2023-04-24T06:30:02;20.40;89.40
66608;DHT22;53462;39.616;8.824;2023-04-24T06:32:28;20.40;88.80
66608;DHT22;53462;39.616;8.824;2023-04-24T06:34:56;20.50;88.80
66608;DHT22;53462;39.616;8.824;2023-04-24T06:37:22;20.70;87.30
66608;DHT22;53462;39.616;8.824;2023-04-24T06:39:48;20.60;87.30
66608;DHT22;53462;39.616;8.824;2023-04-24T06:42:14;20.90;87.90
66608;DHT22;53462;39.616;8.824;2023-04-24T06:44:43;21.00;86.40
66608;DHT22;53462;39.616;8.824;2023-04-24T06:47:09;21.10;85.80
66608;DHT22;53462;39.616;8.824;2023-04-24T06:49:36;21.10;86.10
66608;DHT22;53462;39.616;8.824;2023-04-24T06:52:03;20.70;85.90
66608;DHT22;53462;39.616;8.824;2023-04-24T06:54:29;21.00;87.50
66608;DHT22;53462;39.616;8.824;2023-04-24T06:56:56;20.30;87.30
66608;DHT22;53462;39.616;8.824;2023-04-24T06:59:25;19.50;88.50
66608;DHT22;53462;39.616;8.824;2023-04-24T07:01:51;18.80;92.90
66608;DHT22;53462;39.616;8.824;2023-04-24T07:04:18;18.60;95.30
66608;DHT22;53462;39.616;8.824;2023-04-24T07:06:45;18.80;95.90
66608;DHT22;53462;39.616;8.824;2023-04-24T07:09:12;18.70;97.10
66608;DHT22;53462;39.616;8.824;2023-04-24T07:11:39;18.50;98.50
66608;DHT22;53462;39.616;8.824;2023-04-24T07:14:06;18.20;98.00
66608;DHT22;53462;39.616;8.824;2023-04-24T07:16:32;18.10;99.00
66608;DHT22;53462;39.616;8.824;2023-04-24T07:18:58;18.10;99.50
66608;DHT22;53462;39.616;8.824;2023-04-24T07:21:24;18.10;99.90
66608;DHT22;53462;39.616;8.824;2023-04-24T07:23:52;18.10;99.00
66608;DHT22;53462;39.616;8.824;2023-04-24T07:26:17;18.10;99.60
66608;DHT22;53462;39.616;8.824;2023-04-24T07:28:43;19.10;97.50
66608;DHT22;53462;39.616;8.824;2023-04-24T07:31:11;18.60;96.10
66608;DHT22;53462;39.616;8.824;2023-04-24T07:33:37;18.80;95.50
66608;DHT22;53462;39.616;8.824;2023-04-24T07:36:04;18.90;94.60
66608;DHT22;53462;39.616;8.824;2023-04-24T07:38:30;19.00;95.00
66608;DHT22;53462;39.616;8.824;2023-04-24T07:40:56;19.50;92.60
66608;DHT22;53462;39.616;8.824;2023-04-24T07:43:22;19.00;93.00
66608;DHT22;53462;39.616;8.824;2023-04-24T07:45:52;18.90;92.50
66608;DHT22;53462;39.616;8.824;2023-04-24T07:48:18;19.80;91.90
66608;DHT22;53462;39.616;8.824;2023-04-24T07:50:44;19.70;88.40
66608;DHT22;53462;39.616;8.824;2023-04-24T07:53:10;19.60;88.40
66608;DHT22;53462;39.616;8.824;2023-04-24T07:55:36;20.50;86.50
66608;DHT22;53462;39.616;8.824;2023-04-24T07:58:02;21.10;82.30
66608;DHT22;53462;39.616;8.824;2023-04-24T08:00:28;21.40;80.50
66608;DHT22;53462;39.616;8.824;2023-04-24T08:02:54;21.60;78.90
66608;DHT22;53462;39.616;8.824;2023-04-24T08:05:20;20.50;80.40
66608;DHT22;53462;39.616;8.824;2023-04-24T08:07:46;20.40;84.90
66608;DHT22;53462;39.616;8.824;2023-04-24T08:10:17;21.00;83.10
66608;DHT22;53462;39.616;8.824;2023-04-24T08:12:43;21.70;82.10
66608;DHT22;53462;39.616;8.824;2023-04-24T08:15:09;21.30;80.80
66608;DHT22;53462;39.616;8.824;2023-04-24T08:17:35;21.50;79.00
66608;DHT22;53462;39.616;8.824;2023-04-24T08:20:03;20.90;79.70
66608;DHT22;53462;39.616;8.824;2023-04-24T08:22:31;21.00;79.60
66608;DHT22;53462;39.616;8.824;2023-04-24T08:24:59;21.60;76.90
66608;DHT22;53462;39.616;8.824;2023-04-24T08:27:26;21.70;74.00
66608;DHT22;53462;39.616;8.824;2023-04-24T08:29:53;22.20;74.30
66608;DHT22;53462;39.616;8.824;2023-04-24T08:32:19;22.10;73.70
66608;DHT22;53462;39.616;8.824;2023-04-24T08:34:45;21.70;73.80
66608;DHT22;53462;39.616;8.824;2023-04-24T08:37:11;21.80;73.50
66608;DHT22;53462;39.616;8.824;2023-04-24T08:39:37;22.50;73.30
66608;DHT22;53462;39.616;8.824;2023-04-24T08:42:05;22.50;71.20
66608;DHT22;53462;39.616;8.824;2023-04-24T08:44:34;22.50;68.70
66608;DHT22;53462;39.616;8.824;2023-04-24T08:47:04;21.80;71.40
66608;DHT22;53462;39.616;8.824;2023-04-24T08:49:31;22.20;73.00
66608;DHT22;53462;39.616;8.824;2023-04-24T08:51:57;23.00;70.40
66608;DHT22;53462;39.616;8.824;2023-04-24T08:54:24;23.10;69.90
66608;DHT22;53462;39.616;8.824;2023-04-24T08:56:50;22.80;69.20
66608;DHT22;53462;39.616;8.824;2023-04-24T08:59:19;23.00;67.70
66608;DHT22;53462;39.616;8.824;2023-04-24T09:01:47;22.60;67.50
66608;DHT22;53462;39.616;8.824;2023-04-24T09:04:14;22.60;65.30
66608;DHT22;53462;39.616;8.824;2023-04-24T09:06:42;22.90;66.00
66608;DHT22;53462;39.616;8.824;2023-04-24T09:09:08;23.30;61.90
66608;DHT22;53462;39.616;8.824;2023-04-24T09:11:37;23.40;62.80
66608;DHT22;53462;39.616;8.824;2023-04-24T09:14:03;23.00;59.90
66608;DHT22;53462;39.616;8.824;2023-04-24T09:16:30;23.40;58.80
66608;DHT22;53462;39.616;8.824;2023-04-24T09:18:58;23.80;57.10
66608;DHT22;53462;39.616;8.824;2023-04-24T09:21:32;23.40;60.00
66608;DHT22;53462;39.616;8.824;2023-04-24T09:24:00;23.00;59.10
66608;DHT22;53462;39.616;8.824;2023-04-24T09:26:29;22.90;59.50
66608;DHT22;53462;39.616;8.824;2023-04-24T09:29:00;23.40;57.50
66608;DHT22;53462;39.616;8.824;2023-04-24T09:31:28;23.60;55.60
66608;DHT22;53462;39.616;8.824;2023-04-24T09:34:02;23.00;57.20
66608;DHT22;53462;39.616;8.824;2023-04-24T09:36:36;23.50;57.30
66608;DHT22;53462;39.616;8.824;2023-04-24T09:39:05;23.00;56.60
66608;DHT22;53462;39.616;8.824;2023-04-24T09:41:32;23.50;56.30
66608;DHT22;53462;39.616;8.824;2023-04-24T09:44:22;23.90;54.50
66608;DHT22;53462;39.616;8.824;2023-04-24T09:46:58;24.10;55.20
66608;DHT22;53462;39.616;8.824;2023-04-24T09:49:25;24.60;53.00
66608;DHT22;53462;39.616;8.824;2023-04-24T09:51:52;24.00;54.80
66608;DHT22;53462;39.616;8.824;2023-04-24T09:54:19;24.40;53.30
66608;DHT22;53462;39.616;8.824;2023-04-24T09:56:50;24.00;53.60
66608;DHT22;53462;39.616;8.824;2023-04-24T09:59:18;24.50;53.80
66608;DHT22;53462;39.616;8.824;2023-04-24T10:01:44;25.00;52.10
66608;DHT22;53462;39.616;8.824;2023-04-24T10:04:37;24.60;53.10
66608;DHT22;53462;39.616;8.824;2023-04-24T10:07:03;24.60;51.00
66608;DHT22;53462;39.616;8.824;2023-04-24T10:09:32;24.80;50.60
66608;DHT22;53462;39.616;8.824;2023-04-24T10:11:59;24.80;51.70
66608;DHT22;53462;39.616;8.824;2023-04-24T10:14:27;24.10;50.80
66608;DHT22;53462;39.616;8.824;2023-04-24T10:16:55;24.50;50.50
66608;DHT22;53462;39.616;8.824;2023-04-24T10:19:25;23.70;53.20
66608;DHT22;53462;39.616;8.824;2023-04-24T10:21:52;23.50;53.60
66608;DHT22;53462;39.616;8.824;2023-04-24T10:24:20;24.40;52.50
66608;DHT22;53462;39.616;8.824;2023-04-24T10:26:49;24.90;51.90
66608;DHT22;53462;39.616;8.824;2023-04-24T10:29:17;25.00;48.90
66608;DHT22;53462;39.616;8.824;2023-04-24T10:31:43;25.20;48.40
66608;DHT22;53462;39.616;8.824;2023-04-24T10:34:13;25.60;48.30
66608;DHT22;53462;39.616;8.824;2023-04-24T10:36:43;25.40;48.20
66608;DHT22;53462;39.616;8.824;2023-04-24T10:39:13;25.20;49.50
66608;DHT22;53462;39.616;8.824;2023-04-24T10:41:40;25.50;48.70
66608;DHT22;53462;39.616;8.824;2023-04-24T10:44:14;25.10;49.40
66608;DHT22;53462;39.616;8.824;2023-04-24T10:46:43;24.60;49.60
66608;DHT22;53462;39.616;8.824;2023-04-24T10:49:10;24.80;49.70
66608;DHT22;53462;39.616;8.824;2023-04-24T10:51:53;24.90;49.70
66608;DHT22;53462;39.616;8.824;2023-04-24T10:54:26;24.90;48.70
66608;DHT22;53462;39.616;8.824;2023-04-24T10:56:52;25.20;48.10
66608;DHT22;53462;39.616;8.824;2023-04-24T10:59:26;25.40;48.00
66608;DHT22;53462;39.616;8.824;2023-04-24T11:01:53;25.90;48.30
66608;DHT22;53462;39.616;8.824;2023-04-24T11:04:29;25.20;48.30
66608;DHT22;53462;39.616;8.824;2023-04-24T11:06:57;25.30;47.70
66608;DHT22;53462;39.616;8.824;2023-04-24T11:09:34;25.30;48.70
66608;DHT22;53462;39.616;8.824;2023-04-24T11:12:08;24.60;48.50
66608;DHT22;53462;39.616;8.824;2023-04-24T11:14:59;24.90;48.80
66608;DHT22;53462;39.616;8.824;2023-04-24T11:17:29;25.00;49.00
66608;DHT22;53462;39.616;8.824;2023-04-24T11:20:07;25.30;48.30
66608;DHT22;53462;39.616;8.824;2023-04-24T11:22:34;25.20;47.00
66608;DHT22;53462;39.616;8.824;2023-04-24T11:25:02;25.10;47.80
66608;DHT22;53462;39.616;8.824;2023-04-24T11:27:31;25.30;47.40
66608;DHT22;53462;39.616;8.824;2023-04-24T11:30:02;25.50;47.20
66608;DHT22;53462;39.616;8.824;2023-04-24T11:32:35;25.30;47.30
66608;DHT22;53462;39.616;8.824;2023-04-24T11:35:16;25.40;46.60
66608;DHT22;53462;39.616;8.824;2023-04-24T11:37:45;25.60;47.20
66608;DHT22;53462;39.616;8.824;2023-04-24T11:40:13;25.40;46.50
66608;DHT22;53462;39.616;8.824;2023-04-24T11:42:44;25.30;47.30
66608;DHT22;53462;39.616;8.824;2023-04-24T11:45:11;25.60;46.60
66608;DHT22;53462;39.616;8.824;2023-04-24T11:47:38;25.00;47.70
66608;DHT22;53462;39.616;8.824;2023-04-24T11:50:07;25.10;46.90
66608;DHT22;53462;39.616;8.824;2023-04-24T11:52:37;24.00;49.20
66608;DHT22;53462;39.616;8.824;2023-04-24T11:55:03;24.70;50.90
66608;DHT22;53462;39.616;8.824;2023-04-24T11:57:30;25.40;47.90
66608;DHT22;53462;39.616;8.824;2023-04-24T12:00:04;25.50;47.10
66608;DHT22;53462;39.616;8.824;2023-04-24T12:02:37;25.50;46.60
66608;DHT22;53462;39.616;8.824;2023-04-24T12:05:03;25.80;46.40
66608;DHT22;53462;39.616;8.824;2023-04-24T12:07:40;25.90;47.10
66608;DHT22;53462;39.616;8.824;2023-04-24T12:10:08;25.70;46.20
66608;DHT22;53462;39.616;8.824;2023-04-24T12:12:34;25.60;47.50
66608;DHT22;53462;39.616;8.824;2023-04-24T12:15:01;25.30;47.50
66608;DHT22;53462;39.616;8.824;2023-04-24T12:17:29;25.40;46.10
66608;DHT22;53462;39.616;8.824;2023-04-24T12:20:07;25.40;45.40
66608;DHT22;53462;39.616;8.824;2023-04-24T12:22:46;25.30;45.50
66608;DHT22;53462;39.616;8.824;2023-04-24T12:25:14;25.50;45.20
66608;DHT22;53462;39.616;8.824;2023-04-24T12:27:40;25.40;45.40
66608;DHT22;53462;39.616;8.824;2023-04-24T12:30:12;25.40;45.10
66608;DHT22;53462;39.616;8.824;2023-04-24T12:32:43;25.00;45.90
66608;DHT22;53462;39.616;8.824;2023-04-24T12:35:09;25.40;44.80
66608;DHT22;53462;39.616;8.824;2023-04-24T12:37:35;25.50;45.20
66608;DHT22;53462;39.616;8.824;2023-04-24T12:40:08;25.50;44.40
66608;DHT22;53462;39.616;8.824;2023-04-24T12:42:41;25.60;44.60
66608;DHT22;53462;39.616;8.824;2023-04-24T12:45:07;25.60;43.70
66608;DHT22;53462;39.616;8.824;2023-04-24T12:47:34;25.50;44.00
66608;DHT22;53462;39.616;8.824;2023-04-24T12:50:01;25.40;44.00
66608;DHT22;53462;39.616;8.824;2023-04-24T12:52:29;25.10;44.30
66608;DHT22;53462;39.616;8.824;2023-04-24T12:54:59;25.20;44.90
66608;DHT22;53462;39.616;8.824;2023-04-24T12:57:28;25.20;44.80
66608;DHT22;53462;39.616;8.824;2023-04-24T12:59:55;25.10;44.20
66608;DHT22;53462;39.616;8.824;2023-04-24T13:02:22;25.00;44.50
66608;DHT22;53462;39.616;8.824;2023-04-24T13:04:49;24.80;44.50
66608;DHT22;53462;39.616;8.824;2023-04-24T13:07:15;25.00;44.20
66608;DHT22;53462;39.616;8.824;2023-04-24T13:09:44;25.20;44.70
66608;DHT22;53462;39.616;8.824;2023-04-24T13:12:11;24.90;44.30
66608;DHT22;53462;39.616;8.824;2023-04-24T13:14:38;24.80;44.90
66608;DHT22;53462;39.616;8.824;2023-04-24T13:17:04;24.80;44.50
66608;DHT22;53462;39.616;8.824;2023-04-24T13:19:36;24.40;44.70
66608;DHT22;53462;39.616;8.824;2023-04-24T13:22:02;24.60;44.80
66608;DHT22;53462;39.616;8.824;2023-04-24T13:24:28;24.60;44.90
66608;DHT22;53462;39.616;8.824;2023-04-24T13:26:53;24.70;44.90
66608;DHT22;53462;39.616;8.824;2023-04-24T13:29:19;24.50;44.50
66608;DHT22;53462;39.616;8.824;2023-04-24T13:31:51;24.60;45.00
66608;DHT22;53462;39.616;8.824;2023-04-24T13:34:20;24.30;45.30
66608;DHT22;53462;39.616;8.824;2023-04-24T13:36:46;24.10;45.00
66608;DHT22;53462;39.616;8.824;2023-04-24T13:39:12;24.00;46.10
66608;DHT22;53462;39.616;8.824;2023-04-24T13:41:38;24.30;45.60
66608;DHT22;53462;39.616;8.824;2023-04-24T13:44:05;24.20;45.40
66608;DHT22;53462;39.616;8.824;2023-04-24T13:46:32;23.80;45.50
66608;DHT22;53462;39.616;8.824;2023-04-24T13:48:58;23.80;46.40
66608;DHT22;53462;39.616;8.824;2023-04-24T13:51:26;23.80;46.50
66608;DHT22;53462;39.616;8.824;2023-04-24T13:53:55;24.00;45.90
66608;DHT22;53462;39.616;8.824;2023-04-24T13:56:21;23.90;45.60
66608;DHT22;53462;39.616;8.824;2023-04-24T13:58:48;23.70;46.00
66608;DHT22;53462;39.616;8.824;2023-04-24T14:01:14;23.70;46.10
66608;DHT22;53462;39.616;8.824;2023-04-24T14:03:41;23.70;45.90
66608;DHT22;53462;39.616;8.824;2023-04-24T14:06:09;23.30;46.70
66608;DHT22;53462;39.616;8.824;2023-04-24T14:08:34;23.70;46.20
66608;DHT22;53462;39.616;8.824;2023-04-24T14:11:00;23.60;45.40
66608;DHT22;53462;39.616;8.824;2023-04-24T14:13:26;23.30;46.60
66608;DHT22;53462;39.616;8.824;2023-04-24T14:15:53;23.40;46.80
66608;DHT22;53462;39.616;8.824;2023-04-24T14:18:19;23.30;46.40
66608;DHT22;53462;39.616;8.824;2023-04-24T14:20:45;23.20;46.30
66608;DHT22;53462;39.616;8.824;2023-04-24T14:23:11;23.00;46.80
66608;DHT22;53462;39.616;8.824;2023-04-24T14:25:37;23.20;47.40
66608;DHT22;53462;39.616;8.824;2023-04-24T14:28:03;22.90;46.80
66608;DHT22;53462;39.616;8.824;2023-04-24T14:30:29;22.90;47.40
66608;DHT22;53462;39.616;8.824;2023-04-24T14:32:56;22.70;48.20
66608;DHT22;53462;39.616;8.824;2023-04-24T14:35:22;22.80;48.80
66608;DHT22;53462;39.616;8.824;2023-04-24T14:37:48;22.80;48.70
66608;DHT22;53462;39.616;8.824;2023-04-24T14:40:14;22.90;48.10
66608;DHT22;53462;39.616;8.824;2023-04-24T14:42:40;22.50;48.90
66608;DHT22;53462;39.616;8.824;2023-04-24T14:45:07;22.30;49.10
66608;DHT22;53462;39.616;8.824;2023-04-24T14:47:33;22.10;48.90
66608;DHT22;53462;39.616;8.824;2023-04-24T14:50:03;22.20;49.00
66608;DHT22;53462;39.616;8.824;2023-04-24T14:52:29;22.20;48.80
66608;DHT22;53462;39.616;8.824;2023-04-24T14:54:55;22.30;48.40
66608;DHT22;53462;39.616;8.824;2023-04-24T14:57:22;22.10;47.60
66608;DHT22;53462;39.616;8.824;2023-04-24T14:59:48;22.10;47.70
66608;DHT22;53462;39.616;8.824;2023-04-24T15:02:13;22.00;48.20
66608;DHT22;53462;39.616;8.824;2023-04-24T15:04:39;22.00;48.00
66608;DHT22;53462;39.616;8.824;2023-04-24T15:07:05;22.20;47.90
66608;DHT22;53462;39.616;8.824;2023-04-24T15:09:31;22.00;48.20
66608;DHT22;53462;39.616;8.824;2023-04-24T15:11:58;22.10;48.00
66608;DHT22;53462;39.616;8.824;2023-04-24T15:14:24;22.10;48.60
66608;DHT22;53462;39.616;8.824;2023-04-24T15:16:50;22.00;48.80
66608;DHT22;53462;39.616;8.824;2023-04-24T15:19:16;21.90;48.90
66608;DHT22;53462;39.616;8.824;2023-04-24T15:21:42;21.60;49.50
66608;DHT22;53462;39.616;8.824;2023-04-24T15:24:10;21.70;50.20
66608;DHT22;53462;39.616;8.824;2023-04-24T15:26:36;21.80;50.50
66608;DHT22;53462;39.616;8.824;2023-04-24T15:29:02;21.70;50.80
66608;DHT22;53462;39.616;8.824;2023-04-24T15:31:28;21.50;51.30
66608;DHT22;53462;39.616;8.824;2023-04-24T15:33:54;21.70;52.10